createdAt,value
2019-01-31T00:00:14.506Z,26.30
2019-01-31T00:01:14.439Z,25.10
2019-01-31T00:02:14.445Z,24.20
2019-01-31T00:03:14.457Z,25.00
2019-01-31T00:04:14.465Z,25.60
2019-01-31T00:05:14.476Z,26.00
2019-01-31T00:06:14.487Z,25.70
2019-01-31T00:07:14.498Z,25.00
2019-01-31T00:08:14.503Z,26.10
2019-01-31T00:09:14.513Z,26.00
2019-01-31T00:10:14.520Z,24.70
2019-01-31T00:11:14.531Z,26.00
2019-01-31T00:12:14.541Z,26.00
2019-01-31T00:13:14.548Z,25.80
2019-01-31T00:14:14.558Z,25.70
2019-01-31T00:15:14.566Z,26.20
2019-01-31T00:16:14.575Z,25.20
2019-01-31T00:17:14.586Z,26.90
2019-01-31T00:18:14.594Z,24.90
2019-01-31T00:19:14.605Z,25.40
2019-01-31T00:20:14.615Z,26.70
2019-01-31T00:21:14.625Z,25.10
2019-01-31T00:22:14.631Z,26.10
2019-01-31T00:23:14.640Z,24.40
2019-01-31T00:24:14.649Z,25.80
2019-01-31T00:25:14.658Z,24.70
2019-01-31T00:26:14.669Z,26.50
2019-01-31T00:27:14.677Z,25.90
2019-01-31T00:28:14.684Z,26.00
2019-01-31T00:29:14.696Z,24.50
2019-01-31T00:30:14.706Z,25.90
2019-01-31T00:31:14.715Z,24.80
2019-01-31T00:32:14.722Z,24.40
2019-01-31T00:33:14.733Z,25.40
2019-01-31T00:34:14.740Z,25.40
2019-01-31T00:35:14.750Z,25.40
2019-01-31T00:36:14.761Z,25.20
2019-01-31T00:37:14.771Z,25.20
2019-01-31T00:38:14.777Z,24.60
2019-01-31T00:39:14.790Z,25.00
2019-01-31T00:40:14.798Z,24.80
2019-01-31T00:41:14.804Z,25.10
2019-01-31T00:42:14.815Z,24.80
2019-01-31T00:43:14.825Z,24.80
2019-01-31T00:44:14.839Z,25.40
2019-01-31T00:45:14.845Z,24.90
2019-01-31T00:46:14.851Z,24.60
2019-01-31T00:47:14.860Z,25.50
2019-01-31T00:48:14.872Z,25.80
2019-01-31T00:49:14.883Z,24.50
2019-01-31T00:50:14.890Z,25.40
2019-01-31T00:51:14.898Z,25.90
2019-01-31T00:52:14.908Z,24.60
2019-01-31T00:53:14.915Z,24.40
2019-01-31T00:54:14.926Z,24.80
2019-01-31T00:55:14.936Z,25.00
2019-01-31T00:56:14.946Z,25.00
2019-01-31T00:57:14.955Z,25.50
2019-01-31T00:58:14.964Z,24.20
2019-01-31T00:59:14.974Z,24.80
2019-01-31T01:00:14.983Z,25.10
2019-01-31T01:01:14.992Z,25.70
2019-01-31T01:02:15.002Z,24.60
2019-01-31T01:03:15.009Z,24.80
2019-01-31T01:04:15.020Z,24.70
2019-01-31T01:05:15.040Z,24.80
2019-01-31T01:06:15.067Z,24.60
2019-01-31T01:07:15.127Z,24.50
2019-01-31T01:08:15.120Z,25.60
2019-01-31T01:09:15.124Z,25.20
2019-01-31T01:10:15.111Z,25.70
2019-01-31T01:11:15.120Z,25.00
2019-01-31T01:12:15.179Z,25.30
2019-01-31T01:13:15.175Z,25.10
2019-01-31T01:14:15.178Z,24.40
2019-01-31T01:15:15.175Z,25.60
2019-01-31T01:16:15.176Z,24.70
2019-01-31T01:17:15.181Z,24.70
2019-01-31T01:18:15.186Z,25.80
2019-01-31T01:19:15.172Z,24.80
2019-01-31T01:20:15.181Z,24.40
2019-01-31T01:21:15.177Z,24.80
2019-01-31T01:22:15.188Z,24.90
2019-01-31T01:23:15.199Z,24.50
2019-01-31T01:24:15.209Z,24.80
2019-01-31T01:25:15.215Z,24.40
2019-01-31T01:26:15.223Z,23.90
2019-01-31T01:27:15.235Z,23.70
2019-01-31T01:28:15.242Z,24.50
2019-01-31T01:29:15.253Z,25.00
2019-01-31T01:30:15.259Z,24.30
2019-01-31T01:31:15.269Z,24.20
2019-01-31T01:32:15.280Z,24.70
2019-01-31T01:33:15.290Z,22.70
2019-01-31T01:34:15.299Z,25.30
2019-01-31T01:35:15.304Z,23.40
2019-01-31T01:36:15.316Z,25.20
2019-01-31T01:37:15.325Z,24.30
2019-01-31T01:38:15.335Z,23.30
2019-01-31T01:39:19.407Z,24.70
2019-01-31T01:40:15.354Z,24.20
2019-01-31T01:41:15.363Z,25.40
2019-01-31T01:42:15.372Z,25.30
2019-01-31T01:43:15.380Z,25.00
2019-01-31T01:44:15.389Z,24.10
2019-01-31T01:45:15.401Z,24.00
2019-01-31T01:46:15.408Z,24.70
2019-01-31T01:47:15.418Z,23.60
2019-01-31T01:48:15.427Z,23.90
2019-01-31T01:49:15.439Z,23.80
2019-01-31T01:50:15.446Z,24.10
2019-01-31T01:51:15.458Z,23.40
2019-01-31T01:52:15.464Z,23.40
2019-01-31T01:53:15.474Z,24.60
2019-01-31T01:54:15.484Z,23.60
2019-01-31T01:55:15.492Z,22.70
2019-01-31T01:56:15.502Z,24.40
2019-01-31T01:57:15.510Z,24.30
2019-01-31T01:58:15.521Z,24.20
2019-01-31T01:59:15.529Z,24.20
2019-01-31T02:00:15.538Z,25.00
2019-01-31T02:01:15.549Z,24.10
2019-01-31T02:02:15.555Z,22.90
2019-01-31T02:03:15.567Z,24.40
2019-01-31T02:04:15.582Z,23.60
2019-01-31T02:05:15.584Z,23.80
2019-01-31T02:06:15.593Z,23.70
2019-01-31T02:07:15.605Z,24.50
2019-01-31T02:08:15.614Z,23.80
2019-01-31T02:09:15.622Z,23.30
2019-01-31T02:10:15.636Z,23.80
2019-01-31T02:11:15.642Z,23.60
2019-01-31T02:12:15.654Z,22.80
2019-01-31T02:13:15.660Z,23.30
2019-01-31T02:14:15.670Z,23.60
2019-01-31T02:15:15.679Z,22.10
2019-01-31T02:16:15.688Z,22.70
2019-01-31T02:17:15.700Z,22.70
2019-01-31T02:18:15.705Z,22.80
2019-01-31T02:19:15.714Z,24.00
2019-01-31T02:20:15.726Z,23.30
2019-01-31T02:21:15.736Z,22.20
2019-01-31T02:22:15.742Z,23.10
2019-01-31T02:23:15.758Z,22.40
2019-01-31T02:24:15.762Z,21.50
2019-01-31T02:25:15.775Z,24.20
2019-01-31T02:26:15.783Z,23.00
2019-01-31T02:27:15.790Z,22.00
2019-01-31T02:28:15.800Z,22.70
2019-01-31T02:29:15.809Z,22.70
2019-01-31T02:30:15.819Z,21.60
2019-01-31T02:31:15.829Z,22.70
2019-01-31T02:32:15.840Z,21.20
2019-01-31T02:33:15.851Z,22.00
2019-01-31T02:34:15.859Z,22.90
2019-01-31T02:35:15.866Z,21.60
2019-01-31T02:36:15.875Z,22.50
2019-01-31T02:37:15.889Z,21.70
2019-01-31T02:38:15.895Z,23.20
2019-01-31T02:39:15.905Z,22.40
2019-01-31T02:40:15.917Z,22.60
2019-01-31T02:41:15.921Z,23.80
2019-01-31T02:42:15.934Z,23.60
2019-01-31T02:43:15.975Z,22.10
2019-01-31T02:44:15.955Z,23.40
2019-01-31T02:45:15.959Z,21.90
2019-01-31T02:46:15.970Z,23.20
2019-01-31T02:47:15.978Z,22.40
2019-01-31T02:48:15.991Z,22.40
2019-01-31T02:49:15.998Z,23.10
2019-01-31T02:50:16.009Z,22.40
2019-01-31T02:51:16.020Z,23.50
2019-01-31T02:52:16.024Z,22.50
2019-01-31T02:53:16.035Z,22.90
2019-01-31T02:54:16.046Z,22.40
2019-01-31T02:55:16.055Z,22.50
2019-01-31T02:56:16.066Z,23.20
2019-01-31T02:57:16.077Z,21.10
2019-01-31T02:58:16.083Z,22.90
2019-01-31T02:59:16.093Z,22.00
2019-01-31T03:00:16.101Z,21.30
2019-01-31T03:01:16.110Z,22.10
2019-01-31T03:02:16.119Z,23.30
2019-01-31T03:03:16.130Z,22.30
2019-01-31T03:04:16.142Z,22.90
2019-01-31T03:05:16.317Z,21.40
2019-01-31T03:06:16.159Z,22.40
2019-01-31T03:07:16.166Z,22.90
2019-01-31T03:08:16.176Z,20.60
2019-01-31T03:09:16.190Z,21.80
2019-01-31T03:10:16.194Z,21.70
2019-01-31T03:11:16.204Z,21.80
2019-01-31T03:12:16.216Z,22.60
2019-01-31T03:13:16.224Z,21.50
2019-01-31T03:14:16.237Z,21.40
2019-01-31T03:15:16.242Z,21.80
2019-01-31T03:16:16.253Z,21.50
2019-01-31T03:17:16.258Z,22.20
2019-01-31T03:18:16.270Z,20.70
2019-01-31T03:19:16.281Z,21.90
2019-01-31T03:20:16.291Z,19.70
2019-01-31T03:21:16.299Z,21.00
2019-01-31T03:22:16.308Z,19.80
2019-01-31T03:23:16.318Z,22.70
2019-01-31T03:24:16.327Z,22.20
2019-01-31T03:25:16.336Z,21.40
2019-01-31T03:26:16.346Z,20.20
2019-01-31T03:27:16.355Z,21.20
2019-01-31T03:28:16.363Z,20.50
2019-01-31T03:29:16.375Z,20.30
2019-01-31T03:30:16.386Z,19.60
2019-01-31T03:31:16.395Z,20.40
2019-01-31T03:32:16.409Z,20.30
2019-01-31T03:33:16.423Z,20.10
2019-01-31T03:34:16.421Z,21.80
2019-01-31T03:35:16.431Z,21.30
2019-01-31T03:36:16.449Z,21.40
2019-01-31T03:37:16.449Z,21.40
2019-01-31T03:38:16.459Z,21.00
2019-01-31T03:39:16.475Z,21.10
2019-01-31T03:40:16.479Z,20.40
2019-01-31T03:41:16.487Z,20.20
2019-01-31T03:42:16.496Z,20.50
2019-01-31T03:43:16.510Z,20.90
2019-01-31T03:44:16.607Z,21.00
2019-01-31T03:45:16.525Z,21.10
2019-01-31T03:46:16.533Z,20.50
2019-01-31T03:47:16.542Z,20.40
2019-01-31T03:48:16.553Z,20.50
2019-01-31T03:49:16.565Z,20.70
2019-01-31T03:50:16.577Z,21.20
2019-01-31T03:51:16.581Z,20.10
2019-01-31T03:52:16.596Z,21.00
2019-01-31T03:53:16.603Z,20.00
2019-01-31T03:54:16.612Z,20.70
2019-01-31T03:55:16.621Z,21.20
2019-01-31T03:56:16.637Z,21.00
2019-01-31T03:57:16.638Z,20.20
2019-01-31T03:58:16.649Z,19.50
2019-01-31T03:59:16.664Z,20.30
2019-01-31T04:00:16.669Z,21.00
2019-01-31T04:01:16.677Z,21.30
2019-01-31T04:02:16.687Z,20.40
2019-01-31T04:03:16.695Z,20.40
2019-01-31T04:04:16.706Z,19.90
2019-01-31T04:05:16.723Z,20.90
2019-01-31T04:06:16.725Z,19.20
2019-01-31T04:07:16.736Z,20.50
2019-01-31T04:08:16.745Z,21.10
2019-01-31T04:09:16.752Z,21.00
2019-01-31T04:10:18.980Z,19.90
2019-01-31T04:11:16.772Z,20.30
2019-01-31T04:12:16.786Z,20.90
2019-01-31T04:13:16.800Z,20.10
2019-01-31T04:14:16.893Z,20.60
2019-01-31T04:15:16.878Z,19.80
2019-01-31T04:16:16.883Z,20.20
2019-01-31T04:17:16.878Z,20.70
2019-01-31T04:18:16.876Z,20.50
2019-01-31T04:19:16.879Z,19.40
2019-01-31T04:20:16.938Z,20.30
2019-01-31T04:21:16.956Z,19.00
2019-01-31T04:22:16.956Z,20.70
2019-01-31T04:23:16.950Z,18.80
2019-01-31T04:24:16.948Z,19.90
2019-01-31T04:25:16.950Z,19.90
2019-01-31T04:26:16.935Z,19.70
2019-01-31T04:27:16.934Z,18.80
2019-01-31T04:28:16.936Z,19.10
2019-01-31T04:29:16.954Z,19.30
2019-01-31T04:30:16.956Z,19.60
2019-01-31T04:31:16.971Z,18.80
2019-01-31T04:32:16.974Z,19.00
2019-01-31T04:33:16.984Z,20.20
2019-01-31T04:34:16.993Z,18.70
2019-01-31T04:35:17.004Z,19.30
2019-01-31T04:36:17.029Z,18.70
2019-01-31T04:37:17.022Z,18.80
2019-01-31T04:38:19.777Z,18.60
2019-01-31T04:39:17.043Z,20.20
2019-01-31T04:40:17.053Z,19.50
2019-01-31T04:41:17.063Z,19.90
2019-01-31T04:42:17.072Z,19.90
2019-01-31T04:43:17.082Z,19.20
2019-01-31T04:44:17.091Z,18.40
2019-01-31T04:45:17.100Z,19.00
2019-01-31T04:46:17.114Z,17.90
2019-01-31T04:47:17.120Z,19.10
2019-01-31T04:48:17.129Z,18.50
2019-01-31T04:49:17.143Z,17.80
2019-01-31T04:50:17.149Z,18.90
2019-01-31T04:51:17.164Z,18.60
2019-01-31T04:52:17.168Z,18.00
2019-01-31T04:53:17.179Z,18.30
2019-01-31T04:54:17.187Z,18.10
2019-01-31T04:55:17.200Z,18.90
2019-01-31T04:56:17.210Z,18.90
2019-01-31T04:57:17.218Z,18.40
2019-01-31T04:58:17.228Z,17.90
2019-01-31T04:59:17.236Z,18.10
2019-01-31T05:00:17.247Z,18.70
2019-01-31T05:01:17.255Z,18.70
2019-01-31T05:02:17.268Z,18.70
2019-01-31T05:03:17.281Z,17.80
2019-01-31T05:04:17.285Z,18.10
2019-01-31T05:05:17.295Z,17.10
2019-01-31T05:06:17.305Z,18.50
2019-01-31T05:07:17.314Z,19.10
2019-01-31T05:08:17.337Z,18.40
2019-01-31T05:09:17.334Z,18.30
2019-01-31T05:10:17.344Z,18.20
2019-01-31T05:11:17.356Z,18.30
2019-01-31T05:12:17.364Z,18.10
2019-01-31T05:13:17.373Z,18.70
2019-01-31T05:14:17.381Z,18.80
2019-01-31T05:15:17.397Z,18.70
2019-01-31T05:16:17.630Z,18.50
2019-01-31T05:17:17.413Z,17.90
2019-01-31T05:18:17.419Z,18.60
2019-01-31T05:19:17.433Z,18.10
2019-01-31T05:20:17.442Z,17.70
2019-01-31T05:21:17.449Z,17.90
2019-01-31T05:22:17.463Z,18.40
2019-01-31T05:23:17.468Z,17.40
2019-01-31T05:24:17.480Z,18.90
2019-01-31T05:25:17.490Z,17.90
2019-01-31T05:26:17.511Z,18.20
2019-01-31T05:27:17.511Z,18.50
2019-01-31T05:28:17.520Z,18.20
2019-01-31T05:29:17.536Z,17.50
2019-01-31T05:30:17.539Z,17.80
2019-01-31T05:31:17.551Z,18.10
2019-01-31T05:32:17.561Z,18.40
2019-01-31T05:33:17.569Z,17.70
2019-01-31T05:34:17.590Z,19.10
2019-01-31T05:35:17.590Z,17.90
2019-01-31T05:36:17.598Z,18.40
2019-01-31T05:37:17.607Z,18.60
2019-01-31T05:38:17.667Z,18.50
2019-01-31T05:39:17.630Z,18.50
2019-01-31T05:40:17.641Z,19.00
2019-01-31T05:41:17.647Z,18.00
2019-01-31T05:42:17.655Z,18.10
2019-01-31T05:43:17.666Z,18.20
2019-01-31T05:44:17.678Z,17.90
2019-01-31T05:45:17.685Z,18.40
2019-01-31T05:46:18.387Z,18.60
2019-01-31T05:47:17.709Z,18.30
2019-01-31T05:48:17.714Z,17.90
2019-01-31T05:49:17.726Z,18.80
2019-01-31T05:50:17.734Z,19.10
2019-01-31T05:51:17.743Z,18.70
2019-01-31T05:52:17.751Z,18.00
2019-01-31T05:53:17.765Z,18.50
2019-01-31T05:54:17.774Z,18.30
2019-01-31T05:55:17.781Z,18.60
2019-01-31T05:56:17.792Z,18.70
2019-01-31T05:57:17.802Z,19.60
2019-01-31T05:58:17.919Z,18.40
2019-01-31T05:59:17.820Z,17.40
2019-01-31T06:00:17.829Z,18.90
2019-01-31T06:01:17.838Z,18.20
2019-01-31T06:02:17.851Z,17.80
2019-01-31T06:03:17.859Z,18.80
2019-01-31T06:04:17.867Z,17.80
2019-01-31T06:05:17.879Z,17.30
2019-01-31T06:06:17.897Z,18.60
2019-01-31T06:07:17.895Z,18.10
2019-01-31T06:08:17.907Z,18.10
2019-01-31T06:09:17.915Z,19.00
2019-01-31T06:10:17.925Z,18.30
2019-01-31T06:11:17.933Z,18.10
2019-01-31T06:12:17.949Z,17.70
2019-01-31T06:13:17.955Z,17.50
2019-01-31T06:14:17.964Z,18.60
2019-01-31T06:15:17.973Z,18.50
2019-01-31T06:16:17.982Z,18.10
2019-01-31T06:17:17.993Z,18.10
2019-01-31T06:18:18.005Z,19.50
2019-01-31T06:19:18.011Z,17.10
2019-01-31T06:20:18.020Z,17.90
2019-01-31T06:21:18.030Z,17.10
2019-01-31T06:22:18.040Z,17.60
2019-01-31T06:23:18.051Z,17.70
2019-01-31T06:24:18.057Z,18.00
2019-01-31T06:25:18.080Z,18.10
2019-01-31T06:26:18.078Z,18.40
2019-01-31T06:27:18.089Z,18.40
2019-01-31T06:28:18.100Z,18.40
2019-01-31T06:29:18.108Z,17.00
2019-01-31T06:30:18.120Z,18.90
2019-01-31T06:31:18.126Z,17.40
2019-01-31T06:32:18.136Z,17.40
2019-01-31T06:33:18.153Z,17.70
2019-01-31T06:34:18.155Z,17.60
2019-01-31T06:35:18.165Z,18.00
2019-01-31T06:36:18.176Z,17.60
2019-01-31T06:37:18.186Z,17.50
2019-01-31T06:38:18.195Z,18.50
2019-01-31T06:39:20.115Z,17.70
2019-01-31T06:40:18.216Z,18.30
2019-01-31T06:41:18.998Z,17.40
2019-01-31T06:42:18.234Z,17.50
2019-01-31T06:43:18.308Z,18.20
2019-01-31T06:44:18.253Z,17.30
2019-01-31T06:45:18.265Z,18.20
2019-01-31T06:46:18.272Z,18.60
2019-01-31T06:47:18.283Z,18.10
2019-01-31T06:48:18.296Z,17.30
2019-01-31T06:49:18.302Z,17.50
2019-01-31T06:50:18.313Z,17.80
2019-01-31T06:51:18.321Z,17.50
2019-01-31T06:52:18.332Z,16.70
2019-01-31T06:53:18.345Z,17.00
2019-01-31T06:54:18.353Z,17.60
2019-01-31T06:55:18.370Z,17.00
2019-01-31T06:56:18.370Z,18.00
2019-01-31T06:57:18.381Z,17.60
2019-01-31T06:58:18.388Z,17.60
2019-01-31T06:59:18.400Z,18.10
2019-01-31T07:00:18.418Z,18.00
2019-01-31T07:01:18.421Z,17.80
2019-01-31T07:02:18.432Z,17.90
2019-01-31T07:03:18.440Z,17.70
2019-01-31T07:04:18.449Z,18.10
2019-01-31T07:05:18.459Z,18.40
2019-01-31T07:06:18.470Z,17.50
2019-01-31T07:07:18.479Z,17.50
2019-01-31T07:08:18.487Z,17.20
2019-01-31T07:09:18.499Z,18.40
2019-01-31T07:10:18.506Z,17.40
2019-01-31T07:11:29.308Z,18.70
2019-01-31T07:12:18.534Z,17.90
2019-01-31T07:13:18.539Z,17.60
2019-01-31T07:14:18.547Z,16.70
2019-01-31T07:15:18.559Z,16.40
2019-01-31T07:16:18.584Z,17.50
2019-01-31T07:17:18.612Z,16.70
2019-01-31T07:18:18.663Z,17.00
2019-01-31T07:19:18.653Z,17.50
2019-01-31T07:20:18.645Z,17.70
2019-01-31T07:21:18.652Z,18.40
2019-01-31T07:22:18.648Z,17.70
2019-01-31T07:23:18.712Z,17.40
2019-01-31T07:24:18.700Z,18.10
2019-01-31T07:25:18.725Z,17.90
2019-01-31T07:26:18.710Z,17.80
2019-01-31T07:27:18.702Z,17.60
2019-01-31T07:28:18.713Z,17.00
2019-01-31T07:29:18.719Z,16.70
2019-01-31T07:30:18.705Z,17.70
2019-01-31T07:31:18.719Z,18.00
2019-01-31T07:32:18.728Z,17.30
2019-01-31T07:33:18.736Z,16.90
2019-01-31T07:34:18.747Z,19.60
2019-01-31T07:35:18.755Z,19.00
2019-01-31T07:36:18.766Z,18.90
2019-01-31T07:37:18.776Z,18.70
2019-01-31T07:38:18.784Z,17.40
2019-01-31T07:39:18.802Z,17.60
2019-01-31T07:40:18.807Z,17.80
2019-01-31T07:41:18.818Z,17.00
2019-01-31T07:42:18.825Z,17.20
2019-01-31T07:43:18.837Z,17.60
2019-01-31T07:44:18.844Z,18.20
2019-01-31T07:45:18.858Z,18.50
2019-01-31T07:46:18.867Z,18.70
2019-01-31T07:47:18.878Z,17.80
2019-01-31T07:48:18.890Z,18.20
2019-01-31T07:49:18.897Z,18.40
2019-01-31T07:50:18.907Z,18.10
2019-01-31T07:51:18.917Z,17.90
2019-01-31T07:52:18.930Z,17.50
2019-01-31T07:53:18.940Z,19.30
2019-01-31T07:54:18.947Z,17.90
2019-01-31T07:55:18.960Z,19.50
2019-01-31T07:56:18.968Z,17.40
2019-01-31T07:57:18.979Z,17.80
2019-01-31T07:58:20.522Z,18.50
2019-01-31T07:59:19.000Z,19.70
2019-01-31T08:00:19.011Z,17.70
2019-01-31T08:01:19.019Z,16.90
2019-01-31T08:02:19.028Z,17.60
2019-01-31T08:03:19.040Z,18.40
2019-01-31T08:04:19.050Z,16.90
2019-01-31T08:05:19.061Z,18.30
2019-01-31T08:06:19.071Z,18.10
2019-01-31T08:07:19.080Z,18.00
2019-01-31T08:08:19.091Z,17.70
2019-01-31T08:09:19.101Z,18.20
2019-01-31T08:10:19.112Z,17.40
2019-01-31T08:11:19.123Z,18.00
2019-01-31T08:12:19.133Z,17.40
2019-01-31T08:13:19.145Z,18.20
2019-01-31T08:14:19.153Z,17.60
2019-01-31T08:15:19.164Z,16.80
2019-01-31T08:16:19.174Z,17.60
2019-01-31T08:17:19.185Z,17.10
2019-01-31T08:18:19.195Z,17.20
2019-01-31T08:19:19.205Z,17.20
2019-01-31T08:20:19.215Z,17.70
2019-01-31T08:21:19.225Z,17.20
2019-01-31T08:22:19.235Z,17.30
2019-01-31T08:23:19.248Z,17.20
2019-01-31T08:24:19.257Z,17.80
2019-01-31T08:25:19.269Z,16.50
2019-01-31T08:26:19.278Z,18.50
2019-01-31T08:27:19.288Z,17.10
2019-01-31T08:28:19.299Z,16.80
2019-01-31T08:29:19.311Z,17.10
2019-01-31T08:30:19.322Z,16.70
2019-01-31T08:31:19.333Z,17.30
2019-01-31T08:32:19.344Z,17.00
2019-01-31T08:33:19.355Z,17.30
2019-01-31T08:34:19.364Z,17.10
2019-01-31T08:35:19.376Z,17.50
2019-01-31T08:36:19.386Z,18.00
2019-01-31T08:37:19.398Z,17.00
2019-01-31T08:38:19.410Z,17.40
2019-01-31T08:39:19.418Z,16.90
2019-01-31T08:40:19.431Z,18.40
2019-01-31T08:41:19.443Z,17.20
2019-01-31T08:42:19.455Z,17.10
2019-01-31T08:43:20.569Z,17.00
2019-01-31T08:44:19.473Z,17.20
2019-01-31T08:45:19.487Z,17.70
2019-01-31T08:46:19.494Z,17.30
2019-01-31T08:47:19.509Z,16.90
2019-01-31T08:48:19.520Z,17.50
2019-01-31T08:49:19.530Z,17.20
2019-01-31T08:50:19.539Z,17.20
2019-01-31T08:51:19.555Z,17.60
2019-01-31T08:52:19.564Z,17.20
2019-01-31T08:53:19.583Z,16.40
2019-01-31T08:54:19.586Z,17.00
2019-01-31T08:55:19.595Z,17.30
2019-01-31T08:56:19.624Z,16.90
2019-01-31T08:57:19.620Z,17.80
2019-01-31T08:58:19.630Z,17.10
2019-01-31T08:59:19.644Z,16.30
2019-01-31T09:00:19.655Z,16.30
2019-01-31T09:01:19.667Z,16.00
2019-01-31T09:02:19.674Z,15.60
2019-01-31T09:03:19.797Z,16.60
2019-01-31T09:04:19.700Z,16.10
2019-01-31T09:05:19.711Z,17.30
2019-01-31T09:06:19.721Z,16.30
2019-01-31T09:07:19.735Z,15.80
2019-01-31T09:08:19.754Z,16.00
2019-01-31T09:09:19.759Z,15.00
2019-01-31T09:10:19.774Z,15.70
2019-01-31T09:11:19.782Z,15.50
2019-01-31T09:12:19.793Z,16.00
2019-01-31T09:13:19.806Z,16.50
2019-01-31T09:14:19.816Z,16.50
2019-01-31T09:15:19.829Z,15.80
2019-01-31T09:16:19.842Z,15.50
2019-01-31T09:17:19.856Z,15.30
2019-01-31T09:18:19.864Z,15.20
2019-01-31T09:19:19.877Z,15.10
2019-01-31T09:20:19.890Z,15.90
2019-01-31T09:21:19.901Z,17.00
2019-01-31T09:22:19.914Z,15.90
2019-01-31T09:23:19.925Z,16.20
2019-01-31T09:24:19.937Z,15.70
2019-01-31T09:25:20.067Z,16.90
2019-01-31T09:26:19.963Z,15.40
2019-01-31T09:27:19.974Z,16.70
2019-01-31T09:28:19.988Z,15.40
2019-01-31T09:29:19.997Z,15.40
2019-01-31T09:30:20.012Z,15.90
2019-01-31T09:31:20.022Z,16.70
2019-01-31T09:32:20.129Z,16.20
2019-01-31T09:33:20.051Z,15.70
2019-01-31T09:34:20.057Z,15.80
2019-01-31T09:35:20.071Z,15.50
2019-01-31T09:36:20.087Z,15.70
2019-01-31T09:37:20.096Z,15.60
2019-01-31T09:38:20.108Z,15.80
2019-01-31T09:39:20.120Z,15.70
2019-01-31T09:40:20.131Z,16.00
2019-01-31T09:41:20.146Z,15.80
2019-01-31T09:42:26.306Z,15.40
2019-01-31T09:43:20.170Z,15.60
2019-01-31T09:44:20.184Z,15.70
2019-01-31T09:45:20.195Z,15.20
2019-01-31T09:46:20.208Z,15.40
2019-01-31T09:47:20.219Z,15.30
2019-01-31T09:48:20.232Z,14.70
2019-01-31T09:49:20.250Z,14.30
2019-01-31T09:50:20.256Z,15.60
2019-01-31T09:51:20.268Z,15.10
2019-01-31T09:52:20.287Z,15.00
2019-01-31T09:53:20.295Z,13.80
2019-01-31T09:54:20.306Z,14.50
2019-01-31T09:55:20.374Z,14.30
2019-01-31T09:56:20.330Z,14.20
2019-01-31T09:57:20.344Z,14.70
2019-01-31T09:58:20.366Z,13.80
2019-01-31T09:59:20.554Z,14.60
2019-01-31T10:00:27.088Z,14.30
2019-01-31T10:01:20.440Z,14.40
2019-01-31T10:02:20.441Z,14.00
2019-01-31T10:03:20.537Z,13.60
2019-01-31T10:04:20.500Z,13.70
2019-01-31T10:05:20.499Z,13.50
2019-01-31T10:06:20.506Z,13.70
2019-01-31T10:07:20.503Z,13.20
2019-01-31T10:08:20.508Z,13.70
2019-01-31T10:09:20.505Z,14.40
2019-01-31T10:10:20.523Z,13.70
2019-01-31T10:11:20.520Z,13.50
2019-01-31T10:12:23.217Z,13.00
2019-01-31T10:13:20.545Z,13.20
2019-01-31T10:14:20.652Z,13.40
2019-01-31T10:15:20.573Z,12.80
2019-01-31T10:16:20.602Z,12.10
2019-01-31T10:17:20.762Z,11.40
2019-01-31T10:18:20.653Z,12.30
2019-01-31T10:19:23.167Z,12.50
2019-01-31T10:20:20.760Z,12.70
2019-01-31T10:21:20.653Z,12.00
2019-01-31T10:22:20.679Z,12.00
2019-01-31T10:23:20.690Z,12.70
2019-01-31T10:24:20.694Z,12.20
2019-01-31T10:25:20.720Z,11.80
2019-01-31T10:26:20.710Z,12.20
2019-01-31T10:27:20.722Z,11.40
2019-01-31T10:28:20.735Z,10.90
2019-01-31T10:29:20.745Z,11.60
2019-01-31T10:30:20.759Z,11.10
2019-01-31T10:31:20.773Z,10.70
2019-01-31T10:32:20.784Z,11.20
2019-01-31T10:33:20.819Z,11.70
2019-01-31T10:34:22.339Z,10.70
2019-01-31T10:35:20.821Z,10.50
2019-01-31T10:36:20.835Z,11.00
2019-01-31T10:37:20.846Z,11.70
2019-01-31T10:38:20.859Z,11.20
2019-01-31T10:39:20.870Z,11.00
2019-01-31T10:40:20.886Z,10.40
2019-01-31T10:41:20.899Z,10.50
2019-01-31T10:42:20.910Z,10.80
2019-01-31T10:43:20.920Z,10.90
2019-01-31T10:44:20.935Z,10.40
2019-01-31T10:45:22.794Z,10.60
2019-01-31T10:46:20.960Z,10.90
2019-01-31T10:47:20.971Z,11.10
2019-01-31T10:48:20.986Z,10.30
2019-01-31T10:49:20.996Z,11.00
2019-01-31T10:50:21.009Z,10.50
2019-01-31T10:51:21.021Z,10.40
2019-01-31T10:52:21.033Z,10.70
2019-01-31T10:53:21.045Z,10.80
2019-01-31T10:54:21.057Z,10.70
2019-01-31T10:55:21.070Z,10.60
2019-01-31T10:56:21.083Z,10.30
2019-01-31T10:57:21.096Z,9.70
2019-01-31T10:58:21.108Z,11.10
2019-01-31T10:59:21.121Z,10.00
2019-01-31T11:00:21.133Z,9.70
2019-01-31T11:01:21.144Z,10.20
2019-01-31T11:02:21.157Z,10.90
2019-01-31T11:03:21.170Z,10.40
2019-01-31T11:04:21.180Z,10.40
2019-01-31T11:05:21.195Z,10.70
2019-01-31T11:06:21.207Z,10.10
2019-01-31T11:07:21.220Z,9.90
2019-01-31T11:08:21.235Z,10.10
2019-01-31T11:09:21.245Z,9.50
2019-01-31T11:10:21.256Z,9.10
2019-01-31T11:11:21.270Z,9.80
2019-01-31T11:12:21.280Z,9.10
2019-01-31T11:13:21.295Z,9.50
2019-01-31T11:14:21.306Z,9.30
2019-01-31T11:15:21.319Z,9.80
2019-01-31T11:16:21.335Z,8.90
2019-01-31T11:17:21.345Z,8.60
2019-01-31T11:18:21.360Z,8.80
2019-01-31T11:19:21.368Z,8.20
2019-01-31T11:20:21.382Z,8.50
2019-01-31T11:21:21.394Z,8.80
2019-01-31T11:22:21.407Z,8.70
2019-01-31T11:23:21.427Z,8.80
2019-01-31T11:24:21.433Z,8.40
2019-01-31T11:25:21.444Z,7.80
2019-01-31T11:26:21.456Z,8.20
2019-01-31T11:27:21.471Z,8.90
2019-01-31T11:28:21.486Z,9.00
2019-01-31T11:29:21.496Z,8.70
2019-01-31T11:30:21.512Z,8.30
2019-01-31T11:31:21.520Z,8.90
2019-01-31T11:32:21.537Z,8.10
2019-01-31T11:33:21.550Z,8.50
2019-01-31T11:34:32.447Z,7.90
2019-01-31T11:35:21.570Z,8.10
2019-01-31T11:36:21.583Z,8.40
2019-01-31T11:37:21.596Z,7.60
2019-01-31T11:38:21.609Z,7.70
2019-01-31T11:39:21.621Z,7.50
2019-01-31T11:40:21.634Z,8.50
2019-01-31T11:41:21.648Z,8.90
2019-01-31T11:42:21.659Z,8.50
2019-01-31T11:43:21.675Z,7.70
2019-01-31T11:44:21.686Z,8.80
2019-01-31T11:45:21.696Z,8.30
2019-01-31T11:46:21.711Z,8.60
2019-01-31T11:47:21.726Z,8.10
2019-01-31T11:48:21.735Z,8.10
2019-01-31T11:49:21.748Z,8.10
2019-01-31T11:50:21.761Z,7.90
2019-01-31T11:51:21.776Z,7.50
2019-01-31T11:52:21.789Z,7.80
2019-01-31T11:53:21.800Z,8.60
2019-01-31T11:54:21.810Z,8.10
2019-01-31T11:55:21.824Z,8.30
2019-01-31T11:56:21.839Z,8.20
2019-01-31T11:57:21.850Z,8.30
2019-01-31T11:58:21.861Z,8.20
2019-01-31T11:59:21.876Z,7.80
2019-01-31T12:00:21.890Z,7.40
2019-01-31T12:01:21.903Z,7.90
2019-01-31T12:02:21.914Z,7.60
2019-01-31T12:03:21.932Z,7.30
2019-01-31T12:04:22.051Z,7.70
2019-01-31T12:05:21.956Z,7.80
2019-01-31T12:06:21.967Z,7.10
2019-01-31T12:07:21.981Z,8.20
2019-01-31T12:08:21.995Z,7.90
2019-01-31T12:09:22.009Z,8.80
2019-01-31T12:10:22.022Z,6.80
2019-01-31T12:11:22.045Z,7.50
2019-01-31T12:12:22.045Z,6.70
2019-01-31T12:13:23.486Z,7.40
2019-01-31T12:14:22.073Z,6.40
2019-01-31T12:15:22.088Z,6.90
2019-01-31T12:16:22.103Z,6.30
2019-01-31T12:17:22.116Z,6.30
2019-01-31T12:18:22.129Z,6.20
2019-01-31T12:19:22.145Z,5.80
2019-01-31T12:20:22.157Z,6.30
2019-01-31T12:21:22.177Z,5.80
2019-01-31T12:22:22.262Z,5.50
2019-01-31T12:23:22.269Z,6.10
2019-01-31T12:24:22.263Z,5.50
2019-01-31T12:25:22.263Z,5.40
2019-01-31T12:26:22.266Z,5.80
2019-01-31T12:27:22.329Z,5.40
2019-01-31T12:28:22.327Z,5.90
2019-01-31T12:29:22.322Z,5.80
2019-01-31T12:30:22.326Z,5.20
2019-01-31T12:31:22.313Z,5.80
2019-01-31T12:32:22.324Z,5.80
2019-01-31T12:33:22.340Z,6.20
2019-01-31T12:34:22.350Z,5.90
2019-01-31T12:35:22.363Z,5.90
2019-01-31T12:36:22.382Z,5.80
2019-01-31T12:37:22.391Z,6.60
2019-01-31T12:38:22.408Z,5.40
2019-01-31T12:39:22.420Z,5.70
2019-01-31T12:40:22.440Z,5.40
2019-01-31T12:41:22.449Z,5.70
2019-01-31T12:42:22.463Z,5.70
2019-01-31T12:43:22.478Z,6.10
2019-01-31T12:44:22.489Z,5.50
2019-01-31T12:45:22.506Z,5.90
2019-01-31T12:46:22.519Z,6.30
2019-01-31T12:47:22.536Z,5.70
2019-01-31T12:48:22.551Z,6.00
2019-01-31T12:49:22.814Z,6.40
2019-01-31T12:50:22.579Z,5.70
2019-01-31T12:51:22.594Z,5.20
2019-01-31T12:52:22.608Z,5.80
2019-01-31T12:53:22.623Z,5.20
2019-01-31T12:54:22.638Z,5.70
2019-01-31T12:55:22.650Z,5.60
2019-01-31T12:56:22.666Z,5.20